Airfield :
LOGIN :

Register | Disclaimer

   EN    FR    IT 

 










Legend :    VFR   Marginal VFR   IFR   Intensive IFR   Very Intensive IFR
Visi :
Ceiling :
>= 8 km
>= 3000ft
5 to 8 km
1000 to 3000 ft
1500m to 5 km
500 to 1000 ft
800 to 1500m
200 to 500 ft
< 800m
< 200 ft
Symbols :   Thunderstorms  Fog  Heavy snow  Heavy precipitations  Wind > 20 kt
SIGMETs :     Misc.  Thunderstorms  Icing  Turbulence  Mountain Waves  Volcanic Ashes






- Airport Elevation : 143 ft


LGEL - Elefsis

CURRENT METAR :
  • 180650Z 00000KT 8000 FEW020 17/16 Q1017

EXPIRED METARs :
  • 180620Z 00000KT 8000 FEW020 15/15 Q1017
  • 180550Z 00000KT 8000 FEW020 15/14 Q1016
  • 180520Z 00000KT 8000 FEW020 14/14 Q1016
  • 180450Z 00000KT 9999 FEW020 14/14 Q1016
  • 180420Z 00000KT 9999 FEW020 14/14 Q1015

TAF TAF LGEL
Valid from the 18 at 06:00 until the 19 at 06:00 UTC


180500Z 1806/1906 VRB05KT 9999 FEW018 SCT025
PROB40
TEMPO 1806/1818 5000 RA SCT015 BKN020
PROB30
TEMPO 1806/1812 3000 TSRA SCT010 FEW018CB BKN020
BECMG 1807/1809 17012KT



MET'MAP, your aeronautical weather chart ! - Copyright ORBIFLY December 2007 - Disclaimer

ORBIFLY MET'MAP TEAM :

Programming & Development : Alexandra Zaïnal
Concept & Development : Baudouin d'Aumeries
Co-Development & Prog : Marc-Olivier Méhu
Technical & hardware support : Manuel Goepfert

Contact : metmap@orbifly.com




SOURCES & CREDITS :

   NOAA